Time;durP1;ratioP1;P1;durP2;ratioP2;P2;SDS_P1;SDS_P2;PMS_P1;PMS_P2;Temp;Humidity;BMP_temperature;BMP_pressure;BME280_temperature;BME280_humidity;BME280_pressure;Samples;Min_cycle;Max_cycle;Signal;HPM_P1;HPM_P2
2020/03/19 00:00:33;;;;;;;11.35;8.699999;;;;;;;6.06;84.3877;95962.34;;;;
2020/03/19 00:01:40;;;;;;;11.35;8.699999;;;;;;;6.06;84.3877;95962.34;;;;
2020/03/19 00:02:49;;;;;;;11.35;8.699999;;;;;;;6.06;84.3877;95962.34;;;;
2020/03/19 00:09:07;;;;;;;11.35;8.699999;;;;;;;6.06;84.3877;95962.34;;;;
2020/03/19 00:10:52;;;;;;;12.85;8.950001;;;;;;;5.68;82.99805;95964.39;;;;
2020/03/19 00:12:00;;;;;;;12.85;8.950001;;;;;;;5.68;82.99805;95964.39;;;;
2020/03/19 00:13:00;;;;;;;10.75;9.350001;;;;;;;5.66;83.625;95961.49;;;;
2020/03/19 00:14:14;;;;;;;10.75;9.350001;;;;;;;5.66;83.625;95961.49;;;;
2020/03/19 00:15:24;;;;;;;12.55;9.9;;;;;;;5.69;83.93848;95963.78;;;;
2020/03/19 00:16:28;;;;;;;12.55;9.9;;;;;;;5.69;83.93848;95963.78;;;;
2020/03/19 00:17:52;;;;;;;10.75;9.3;;;;;;;5.71;84.22656;95953.7;;;;
2020/03/19 00:18:53;;;;;;;10.75;9.3;;;;;;;5.71;84.22656;95953.7;;;;
2020/03/19 00:20:00;;;;;;;10.75;9.3;;;;;;;5.71;84.22656;95953.7;;;;
2020/03/19 00:21:01;;;;;;;12.95;9.700001;;;;;;;5.72;84.32422;95946.89;;;;
2020/03/19 00:22:02;;;;;;;12.95;9.700001;;;;;;;5.72;84.32422;95946.89;;;;
2020/03/19 00:23:05;;;;;;;12;10.3;;;;;;;5.73;84.53711;95952.17;;;;
2020/03/19 00:26:21;;;;;;;12;10.3;;;;;;;5.73;84.53711;95952.17;;;;
2020/03/19 00:27:42;;;;;;;12;10.3;;;;;;;5.73;84.53711;95952.17;;;;
2020/03/19 00:28:50;;;;;;;12;10.3;;;;;;;5.73;84.53711;95952.17;;;;
2020/03/19 00:29:50;;;;;;;12;10.3;;;;;;;5.73;84.53711;95952.17;;;;
2020/03/19 00:30:55;;;;;;;12;10.3;;;;;;;5.73;84.53711;95952.17;;;;
2020/03/19 00:32:13;;;;;;;12;10.3;;;;;;;5.73;84.53711;95952.17;;;;
2020/03/19 00:33:18;;;;;;;12;10.3;;;;;;;5.73;84.53711;95952.17;;;;
2020/03/19 00:34:19;;;;;;;10.7;8.4;;;;;;;5.34;83.13086;95946.36;;;;
2020/03/19 00:35:19;;;;;;;10.7;8.4;;;;;;;5.34;83.13086;95946.36;;;;
2020/03/19 00:36:20;;;;;;;10.75;9.15;;;;;;;5.31;83.88477;95943.54;;;;
2020/03/19 00:37:20;;;;;;;10.75;9.15;;;;;;;5.31;83.88477;95943.54;;;;
2020/03/19 00:38:21;;;;;;;10.75;9.15;;;;;;;5.31;83.88477;95943.54;;;;
2020/03/19 00:39:23;;;;;;;10.75;9.15;;;;;;;5.31;83.88477;95943.54;;;;
2020/03/19 00:40:46;;;;;;;10.75;9.15;;;;;;;5.31;83.88477;95943.54;;;;
2020/03/19 00:41:49;;;;;;;10.75;9.15;;;;;;;5.31;83.88477;95943.54;;;;
2020/03/19 00:42:49;;;;;;;10.75;9.15;;;;;;;5.31;83.88477;95943.54;;;;
2020/03/19 00:43:51;;;;;;;10.75;9.15;;;;;;;5.31;83.88477;95943.54;;;;
2020/03/19 00:44:51;;;;;;;10.75;9.15;;;;;;;5.31;83.88477;95943.54;;;;
2020/03/19 00:45:54;;;;;;;10.75;9.15;;;;;;;5.31;83.88477;95943.54;;;;
2020/03/19 00:46:58;;;;;;;11.65;9.149999;;;;;;;5.05;82.68652;95942.3;;;;
2020/03/19 00:47:58;;;;;;;11.65;9.149999;;;;;;;5.05;82.68652;95942.3;;;;
2020/03/19 00:48:58;;;;;;;11.65;9.149999;;;;;;;5.05;82.68652;95942.3;;;;
2020/03/19 00:49:59;;;;;;;10.45;9.1;;;;;;;5.05;83.51758;95940.55;;;;
2020/03/19 00:51:00;;;;;;;10.45;9.1;;;;;;;5.05;83.51758;95940.55;;;;
2020/03/19 00:52:00;;;;;;;10.45;9.1;;;;;;;5.05;83.51758;95940.55;;;;
2020/03/19 00:53:01;;;;;;;10.45;9.1;;;;;;;5.05;83.51758;95940.55;;;;
2020/03/19 00:54:03;;;;;;;10.45;9.1;;;;;;;5.05;83.51758;95940.55;;;;
2020/03/19 00:55:04;;;;;;;10.45;9.1;;;;;;;5.05;83.51758;95940.55;;;;
2020/03/19 00:56:07;;;;;;;10.45;9.1;;;;;;;5.05;83.51758;95940.55;;;;
2020/03/19 00:57:07;;;;;;;10.45;9.1;;;;;;;5.05;83.51758;95940.55;;;;
2020/03/19 00:58:10;;;;;;;10.45;9.1;;;;;;;5.05;83.51758;95940.55;;;;
2020/03/19 00:59:12;;;;;;;10.45;9.1;;;;;;;5.05;83.51758;95940.55;;;;
2020/03/19 01:00:13;;;;;;;12.4;10.6;;;;;;;4.82;82.44141;95935.39;;;;
2020/03/19 01:01:58;;;;;;;12.4;10.6;;;;;;;4.82;82.44141;95935.39;;;;
2020/03/19 01:02:59;;;;;;;12.4;10.35;;;;;;;4.82;83.36816;95928.16;;;;
2020/03/19 01:04:00;;;;;;;12.4;10.35;;;;;;;4.82;83.36816;95928.16;;;;
2020/03/19 01:05:05;;;;;;;12.4;10.35;;;;;;;4.82;83.36816;95928.16;;;;
2020/03/19 01:06:06;;;;;;;12.55;10.55;;;;;;;4.89;83.9707;95929.19;;;;
2020/03/19 01:07:09;;;;;;;12.55;10.55;;;;;;;4.89;83.9707;95929.19;;;;
2020/03/19 01:08:12;;;;;;;12.55;10.55;;;;;;;4.89;83.9707;95929.19;;;;
2020/03/19 01:09:12;;;;;;;12.55;10.55;;;;;;;4.89;83.9707;95929.19;;;;
2020/03/19 01:10:43;;;;;;;12.55;10.55;;;;;;;4.89;83.9707;95929.19;;;;
2020/03/19 01:11:45;;;;;;;12.55;10.55;;;;;;;4.89;83.9707;95929.19;;;;
2020/03/19 01:12:46;;;;;;;12.55;10.55;;;;;;;4.89;83.9707;95929.19;;;;
2020/03/19 01:13:46;;;;;;;12.55;10.55;;;;;;;4.89;83.9707;95929.19;;;;
2020/03/19 01:14:47;;;;;;;12.55;10.55;;;;;;;4.89;83.9707;95929.19;;;;
2020/03/19 01:15:48;;;;;;;12.55;10.55;;;;;;;4.89;83.9707;95929.19;;;;
2020/03/19 01:16:48;;;;;;;12.1;9.900001;;;;;;;4.75;82.63965;95921.09;;;;
2020/03/19 01:17:49;;;;;;;12.1;9.900001;;;;;;;4.75;82.63965;95921.09;;;;
2020/03/19 01:18:51;;;;;;;12.1;9.900001;;;;;;;4.75;82.63965;95921.09;;;;
2020/03/19 01:19:52;;;;;;;12.1;9.900001;;;;;;;4.75;82.63965;95921.09;;;;
2020/03/19 01:20:53;;;;;;;12.1;9.900001;;;;;;;4.75;82.63965;95921.09;;;;
2020/03/19 01:21:53;;;;;;;12.1;9.900001;;;;;;;4.75;82.63965;95921.09;;;;
2020/03/19 01:22:54;;;;;;;12.1;9.900001;;;;;;;4.75;82.63965;95921.09;;;;
2020/03/19 01:23:59;;;;;;;12.1;9.900001;;;;;;;4.75;82.63965;95921.09;;;;
2020/03/19 01:25:00;;;;;;;12.1;9.900001;;;;;;;4.75;82.63965;95921.09;;;;
2020/03/19 01:26:00;;;;;;;12.1;9.900001;;;;;;;4.75;82.63965;95921.09;;;;
2020/03/19 01:27:01;;;;;;;10.05;8.75;;;;;;;4.55;82.07422;95924.41;;;;
2020/03/19 01:28:02;;;;;;;10.05;8.75;;;;;;;4.55;82.07422;95924.41;;;;
2020/03/19 01:29:07;;;;;;;10.8;9.400001;;;;;;;4.56;82.94043;95928.23;;;;
2020/03/19 01:30:07;;;;;;;10.8;9.400001;;;;;;;4.56;82.94043;95928.23;;;;
2020/03/19 01:31:16;;;;;;;10.8;9.400001;;;;;;;4.56;82.94043;95928.23;;;;
2020/03/19 01:32:17;;;;;;;10.8;9.400001;;;;;;;4.56;82.94043;95928.23;;;;
2020/03/19 01:33:17;;;;;;;10.8;9.400001;;;;;;;4.56;82.94043;95928.23;;;;
2020/03/19 01:34:18;;;;;;;10.8;9.400001;;;;;;;4.56;82.94043;95928.23;;;;
2020/03/19 01:35:19;;;;;;;10.8;9.400001;;;;;;;4.56;82.94043;95928.23;;;;
2020/03/19 01:36:38;;;;;;;10.8;9.400001;;;;;;;4.56;82.94043;95928.23;;;;
2020/03/19 01:37:38;;;;;;;10.8;9.400001;;;;;;;4.56;82.94043;95928.23;;;;
2020/03/19 01:38:39;;;;;;;10.8;9.400001;;;;;;;4.56;82.94043;95928.23;;;;
2020/03/19 01:39:40;;;;;;;10.8;9.400001;;;;;;;4.56;82.94043;95928.23;;;;
2020/03/19 01:40:41;;;;;;;10.85;9.299999;;;;;;;4.41;81.94336;95922.94;;;;
2020/03/19 01:41:45;;;;;;;10.85;9.299999;;;;;;;4.41;81.94336;95922.94;;;;
2020/03/19 01:42:45;;;;;;;12.95;9.950002;;;;;;;4.42;82.90234;95922.36;;;;
2020/03/19 01:43:46;;;;;;;12.95;9.950002;;;;;;;4.42;82.90234;95922.36;;;;
2020/03/19 01:44:47;;;;;;;12.95;9.950002;;;;;;;4.42;82.90234;95922.36;;;;
2020/03/19 01:45:48;;;;;;;12.95;9.950002;;;;;;;4.42;82.90234;95922.36;;;;
2020/03/19 01:46:55;;;;;;;12.95;9.950002;;;;;;;4.42;82.90234;95922.36;;;;
2020/03/19 01:47:56;;;;;;;12.95;9.950002;;;;;;;4.42;82.90234;95922.36;;;;
2020/03/19 01:49:00;;;;;;;12.95;9.950002;;;;;;;4.42;82.90234;95922.36;;;;
2020/03/19 01:50:00;;;;;;;12.95;9.950002;;;;;;;4.42;82.90234;95922.36;;;;
2020/03/19 01:51:04;;;;;;;12.95;9.950002;;;;;;;4.42;82.90234;95922.36;;;;
2020/03/19 01:52:06;;;;;;;12.95;9.950002;;;;;;;4.42;82.90234;95922.36;;;;
2020/03/19 01:53:07;;;;;;;12.35;9.450001;;;;;;;4.25;81.98633;95919.09;;;;
2020/03/19 01:54:07;;;;;;;12.35;9.450001;;;;;;;4.25;81.98633;95919.09;;;;
2020/03/19 01:55:08;;;;;;;12.35;9.450001;;;;;;;4.25;81.98633;95919.09;;;;
2020/03/19 01:56:08;;;;;;;13.35;10.45;;;;;;;4.26;82.97754;95923.86;;;;
2020/03/19 01:57:09;;;;;;;13.35;10.45;;;;;;;4.26;82.97754;95923.86;;;;
2020/03/19 01:58:09;;;;;;;13.35;10.45;;;;;;;4.26;82.97754;95923.86;;;;
2020/03/19 01:59:10;;;;;;;13.35;10.45;;;;;;;4.26;82.97754;95923.86;;;;
2020/03/19 02:00:11;;;;;;;13.35;10.45;;;;;;;4.26;82.97754;95923.86;;;;
2020/03/19 02:01:31;;;;;;;13.35;10.45;;;;;;;4.26;82.97754;95923.86;;;;
2020/03/19 02:02:34;;;;;;;13.35;10.45;;;;;;;4.26;82.97754;95923.86;;;;
2020/03/19 02:03:35;;;;;;;13.35;10.45;;;;;;;4.26;82.97754;95923.86;;;;
2020/03/19 02:04:39;;;;;;;13.35;10.45;;;;;;;4.26;82.97754;95923.86;;;;
2020/03/19 02:05:40;;;;;;;13.35;10.45;;;;;;;4.26;82.97754;95923.86;;;;
2020/03/19 02:06:44;;;;;;;10.9;9.450001;;;;;;;4.12;82.15918;95912.19;;;;
2020/03/19 02:07:45;;;;;;;10.9;9.450001;;;;;;;4.12;82.15918;95912.19;;;;
2020/03/19 02:08:45;;;;;;;10.9;9.450001;;;;;;;4.12;82.15918;95912.19;;;;
2020/03/19 02:09:47;;;;;;;11.5;9.6;;;;;;;4.14;83.08984;95913.68;;;;
2020/03/19 02:10:52;;;;;;;11.5;9.6;;;;;;;4.14;83.08984;95913.68;;;;
2020/03/19 02:11:53;;;;;;;11.5;9.6;;;;;;;4.14;83.08984;95913.68;;;;
2020/03/19 02:12:54;;;;;;;11.5;9.6;;;;;;;4.14;83.08984;95913.68;;;;
2020/03/19 02:13:54;;;;;;;11.5;9.6;;;;;;;4.14;83.08984;95913.68;;;;
2020/03/19 02:14:56;;;;;;;11.5;9.6;;;;;;;4.14;83.08984;95913.68;;;;
2020/03/19 02:15:56;;;;;;;11.5;9.6;;;;;;;4.14;83.08984;95913.68;;;;
2020/03/19 02:17:00;;;;;;;11.5;9.6;;;;;;;4.14;83.08984;95913.68;;;;
2020/03/19 02:18:01;;;;;;;11.5;9.6;;;;;;;4.14;83.08984;95913.68;;;;
2020/03/19 02:19:04;;;;;;;11.5;9.6;;;;;;;4.14;83.08984;95913.68;;;;
2020/03/19 02:20:05;;;;;;;11.8;9.1;;;;;;;4.04;82.32617;95909.11;;;;
2020/03/19 02:21:06;;;;;;;11.8;9.1;;;;;;;4.04;82.32617;95909.11;;;;
2020/03/19 02:22:06;;;;;;;11.8;9.1;;;;;;;4.04;82.32617;95909.11;;;;
2020/03/19 02:23:08;;;;;;;11.25;9.950002;;;;;;;4.08;83.17188;95906.48;;;;
2020/03/19 02:24:09;;;;;;;11.25;9.950002;;;;;;;4.08;83.17188;95906.48;;;;
2020/03/19 02:25:09;;;;;;;11.25;9.950002;;;;;;;4.08;83.17188;95906.48;;;;
2020/03/19 02:26:10;;;;;;;11.25;9.950002;;;;;;;4.08;83.17188;95906.48;;;;
2020/03/19 02:27:13;;;;;;;11.25;9.950002;;;;;;;4.08;83.17188;95906.48;;;;
2020/03/19 02:28:14;;;;;;;11.25;9.950002;;;;;;;4.08;83.17188;95906.48;;;;
2020/03/19 02:29:14;;;;;;;11.25;9.950002;;;;;;;4.08;83.17188;95906.48;;;;
2020/03/19 02:30:15;;;;;;;11.25;9.950002;;;;;;;4.08;83.17188;95906.48;;;;
2020/03/19 02:31:18;;;;;;;11.25;9.950002;;;;;;;4.08;83.17188;95906.48;;;;
2020/03/19 02:32:19;;;;;;;11.25;9.950002;;;;;;;4.08;83.17188;95906.48;;;;
2020/03/19 02:33:19;;;;;;;13.15;11.2;;;;;;;3.94;82.21973;95903.28;;;;
2020/03/19 02:34:20;;;;;;;13.15;11.2;;;;;;;3.94;82.21973;95903.28;;;;
2020/03/19 02:35:20;;;;;;;13.15;11.2;;;;;;;3.94;82.21973;95903.28;;;;
2020/03/19 02:36:21;;;;;;;13.4;11.05;;;;;;;3.95;83.15723;95902.25;;;;
2020/03/19 02:37:22;;;;;;;13.4;11.05;;;;;;;3.95;83.15723;95902.25;;;;
2020/03/19 02:38:23;;;;;;;13.4;11.05;;;;;;;3.95;83.15723;95902.25;;;;
2020/03/19 02:39:23;;;;;;;13.4;11.05;;;;;;;3.95;83.15723;95902.25;;;;
2020/03/19 02:40:31;;;;;;;13.4;11.05;;;;;;;3.95;83.15723;95902.25;;;;
2020/03/19 02:41:35;;;;;;;13.4;11.05;;;;;;;3.95;83.15723;95902.25;;;;
2020/03/19 02:42:35;;;;;;;13.4;11.05;;;;;;;3.95;83.15723;95902.25;;;;
2020/03/19 02:43:36;;;;;;;13.4;11.05;;;;;;;3.95;83.15723;95902.25;;;;
2020/03/19 02:44:36;;;;;;;13.4;11.05;;;;;;;3.95;83.15723;95902.25;;;;
2020/03/19 02:45:37;;;;;;;13.4;11.05;;;;;;;3.95;83.15723;95902.25;;;;
2020/03/19 02:46:39;;;;;;;15.15;12.4;;;;;;;3.8;82.35254;95905.3;;;;
2020/03/19 02:47:39;;;;;;;15.15;12.4;;;;;;;3.8;82.35254;95905.3;;;;
2020/03/19 02:48:39;;;;;;;15.7;12.5;;;;;;;3.83;83.38574;95899.69;;;;
2020/03/19 02:49:40;;;;;;;15.7;12.5;;;;;;;3.83;83.38574;95899.69;;;;
2020/03/19 02:50:41;;;;;;;15.7;12.5;;;;;;;3.83;83.38574;95899.69;;;;
2020/03/19 02:51:42;;;;;;;15.7;12.5;;;;;;;3.83;83.38574;95899.69;;;;
2020/03/19 02:52:43;;;;;;;15.7;12.5;;;;;;;3.83;83.38574;95899.69;;;;
2020/03/19 02:53:45;;;;;;;15.7;12.5;;;;;;;3.83;83.38574;95899.69;;;;
2020/03/19 02:54:45;;;;;;;15.7;12.5;;;;;;;3.83;83.38574;95899.69;;;;
2020/03/19 02:55:45;;;;;;;15.7;12.5;;;;;;;3.83;83.38574;95899.69;;;;
2020/03/19 02:56:47;;;;;;;15.7;12.5;;;;;;;3.83;83.38574;95899.69;;;;
2020/03/19 02:57:47;;;;;;;15.7;12.5;;;;;;;3.83;83.38574;95899.69;;;;
2020/03/19 02:58:48;;;;;;;15.7;12.5;;;;;;;3.83;83.38574;95899.69;;;;
2020/03/19 02:59:48;;;;;;;13.7;10.9;;;;;;;3.71;82.57617;95896.6;;;;
2020/03/19 03:00:49;;;;;;;13.7;10.9;;;;;;;3.71;82.57617;95896.6;;;;
2020/03/19 03:01:53;;;;;;;13.7;10.9;;;;;;;3.71;82.57617;95896.6;;;;
2020/03/19 03:02:54;;;;;;;15.55;12.95;;;;;;;3.74;83.54785;95899.85;;;;
2020/03/19 03:03:57;;;;;;;15.55;12.95;;;;;;;3.74;83.54785;95899.85;;;;
2020/03/19 03:04:57;;;;;;;15.55;12.95;;;;;;;3.74;83.54785;95899.85;;;;
2020/03/19 03:05:58;;;;;;;15.55;12.95;;;;;;;3.74;83.54785;95899.85;;;;
2020/03/19 03:06:58;;;;;;;15.55;12.95;;;;;;;3.74;83.54785;95899.85;;;;
2020/03/19 03:07:58;;;;;;;15.55;12.95;;;;;;;3.74;83.54785;95899.85;;;;
2020/03/19 03:09:02;;;;;;;15.55;12.95;;;;;;;3.74;83.54785;95899.85;;;;
2020/03/19 03:10:10;;;;;;;15.55;12.95;;;;;;;3.74;83.54785;95899.85;;;;
2020/03/19 03:11:13;;;;;;;15.55;12.95;;;;;;;3.74;83.54785;95899.85;;;;
2020/03/19 03:12:14;;;;;;;15.55;12.95;;;;;;;3.74;83.54785;95899.85;;;;
2020/03/19 03:13:16;;;;;;;13.9;10.55;;;;;;;3.6;82.93262;95905.97;;;;
2020/03/19 03:14:17;;;;;;;13.9;10.55;;;;;;;3.6;82.93262;95905.97;;;;
2020/03/19 03:15:17;;;;;;;13.95;11.55;;;;;;;3.63;83.81152;95904.69;;;;
2020/03/19 03:16:19;;;;;;;13.95;11.55;;;;;;;3.63;83.81152;95904.69;;;;
2020/03/19 03:17:20;;;;;;;13.95;11.55;;;;;;;3.63;83.81152;95904.69;;;;
2020/03/19 03:18:20;;;;;;;13.95;11.55;;;;;;;3.63;83.81152;95904.69;;;;
2020/03/19 03:19:22;;;;;;;13.95;11.55;;;;;;;3.63;83.81152;95904.69;;;;
2020/03/19 03:20:22;;;;;;;13.95;11.55;;;;;;;3.63;83.81152;95904.69;;;;
2020/03/19 03:21:23;;;;;;;13.95;11.55;;;;;;;3.63;83.81152;95904.69;;;;
2020/03/19 03:22:23;;;;;;;13.95;11.55;;;;;;;3.63;83.81152;95904.69;;;;
2020/03/19 03:23:23;;;;;;;13.95;11.55;;;;;;;3.63;83.81152;95904.69;;;;
2020/03/19 03:24:24;;;;;;;13.95;11.55;;;;;;;3.63;83.81152;95904.69;;;;
2020/03/19 03:25:25;;;;;;;13.95;11.55;;;;;;;3.63;83.81152;95904.69;;;;
2020/03/19 03:26:25;;;;;;;15.2;11.75;;;;;;;3.5;82.99805;95900.86;;;;
2020/03/19 03:27:25;;;;;;;15.2;11.75;;;;;;;3.5;82.99805;95900.86;;;;
2020/03/19 03:28:26;;;;;;;15.2;11.75;;;;;;;3.5;82.99805;95900.86;;;;
2020/03/19 03:29:26;;;;;;;15.2;11.75;;;;;;;3.5;82.99805;95900.86;;;;
2020/03/19 03:30:27;;;;;;;15.2;11.75;;;;;;;3.5;82.99805;95900.86;;;;
2020/03/19 03:31:27;;;;;;;15.2;11.75;;;;;;;3.5;82.99805;95900.86;;;;
2020/03/19 03:32:28;;;;;;;15.2;11.75;;;;;;;3.5;82.99805;95900.86;;;;
2020/03/19 03:33:28;;;;;;;15.2;11.75;;;;;;;3.5;82.99805;95900.86;;;;
2020/03/19 03:34:29;;;;;;;15.2;11.75;;;;;;;3.5;82.99805;95900.86;;;;
2020/03/19 03:35:29;;;;;;;15.2;11.75;;;;;;;3.5;82.99805;95900.86;;;;
2020/03/19 03:36:30;;;;;;;14;11.4;;;;;;;3.44;82.90137;95896.71;;;;
2020/03/19 03:37:45;;;;;;;14;11.4;;;;;;;3.44;82.90137;95896.71;;;;
2020/03/19 03:38:46;;;;;;;14;11.4;;;;;;;3.44;82.90137;95896.71;;;;
2020/03/19 03:39:47;;;;;;;14;11.4;;;;;;;3.44;82.90137;95896.71;;;;
2020/03/19 03:40:47;;;;;;;14;11.4;;;;;;;3.44;82.90137;95896.71;;;;
2020/03/19 03:41:49;;;;;;;14;11.4;;;;;;;3.44;82.90137;95896.71;;;;
2020/03/19 03:42:53;;;;;;;14;11.4;;;;;;;3.44;82.90137;95896.71;;;;
2020/03/19 03:43:56;;;;;;;14;11.4;;;;;;;3.44;82.90137;95896.71;;;;
2020/03/19 03:44:56;;;;;;;14;11.4;;;;;;;3.44;82.90137;95896.71;;;;
2020/03/19 03:45:57;;;;;;;14;11.4;;;;;;;3.44;82.90137;95896.71;;;;
2020/03/19 03:46:57;;;;;;;14;11.4;;;;;;;3.44;82.90137;95896.71;;;;
2020/03/19 03:47:58;;;;;;;13.3;10.85;;;;;;;3.38;82.35547;95893.44;;;;
2020/03/19 03:48:59;;;;;;;13.3;10.85;;;;;;;3.38;82.35547;95893.44;;;;
2020/03/19 03:49:59;;;;;;;13.3;10.85;;;;;;;3.38;82.35547;95893.44;;;;
2020/03/19 03:51:00;;;;;;;13.3;10.85;;;;;;;3.38;82.35547;95893.44;;;;
2020/03/19 03:52:02;;;;;;;13.3;10.85;;;;;;;3.38;82.35547;95893.44;;;;
2020/03/19 03:53:04;;;;;;;13.3;10.85;;;;;;;3.38;82.35547;95893.44;;;;
2020/03/19 03:54:06;;;;;;;13.3;10.85;;;;;;;3.38;82.35547;95893.44;;;;
2020/03/19 03:55:06;;;;;;;13.3;10.85;;;;;;;3.38;82.35547;95893.44;;;;
2020/03/19 03:56:10;;;;;;;13.3;10.85;;;;;;;3.38;82.35547;95893.44;;;;
2020/03/19 03:57:11;;;;;;;13.3;10.85;;;;;;;3.38;82.35547;95893.44;;;;
2020/03/19 03:58:12;;;;;;;15.45;11.75;;;;;;;3.33;82.15723;95888.61;;;;
2020/03/19 03:59:12;;;;;;;15.45;11.75;;;;;;;3.33;82.15723;95888.61;;;;
2020/03/19 04:00:13;;;;;;;15.45;11.75;;;;;;;3.33;82.15723;95888.61;;;;
2020/03/19 04:01:22;;;;;;;15.45;11.75;;;;;;;3.33;82.15723;95888.61;;;;
2020/03/19 04:02:22;;;;;;;15.45;11.75;;;;;;;3.33;82.15723;95888.61;;;;
2020/03/19 04:03:23;;;;;;;15.45;11.75;;;;;;;3.33;82.15723;95888.61;;;;
2020/03/19 04:04:26;;;;;;;15.45;11.75;;;;;;;3.33;82.15723;95888.61;;;;
2020/03/19 04:05:26;;;;;;;15.45;11.75;;;;;;;3.33;82.15723;95888.61;;;;
2020/03/19 04:06:26;;;;;;;15.45;11.75;;;;;;;3.33;82.15723;95888.61;;;;
2020/03/19 04:07:27;;;;;;;15.45;11.75;;;;;;;3.33;82.15723;95888.61;;;;
2020/03/19 04:08:27;;;;;;;15.8;12.4;;;;;;;3.2;81.96582;95893.19;;;;
2020/03/19 04:09:28;;;;;;;15.8;12.4;;;;;;;3.2;81.96582;95893.19;;;;
2020/03/19 04:10:28;;;;;;;15.8;12.4;;;;;;;3.2;81.96582;95893.19;;;;
2020/03/19 04:11:29;;;;;;;15.8;12.4;;;;;;;3.2;81.96582;95893.19;;;;
2020/03/19 04:12:29;;;;;;;15.8;12.4;;;;;;;3.2;81.96582;95893.19;;;;
2020/03/19 04:13:30;;;;;;;15.8;12.4;;;;;;;3.2;81.96582;95893.19;;;;
2020/03/19 04:14:30;;;;;;;15.8;12.4;;;;;;;3.2;81.96582;95893.19;;;;
2020/03/19 04:15:30;;;;;;;15.8;12.4;;;;;;;3.2;81.96582;95893.19;;;;
2020/03/19 04:16:31;;;;;;;15.8;12.4;;;;;;;3.2;81.96582;95893.19;;;;
2020/03/19 04:17:31;;;;;;;15.8;12.4;;;;;;;3.2;81.96582;95893.19;;;;
2020/03/19 04:18:32;;;;;;;15.8;12.4;;;;;;;3.2;81.96582;95893.19;;;;
2020/03/19 04:19:32;;;;;;;17.9;13.25;;;;;;;3.15;81.91504;95900.9;;;;
2020/03/19 04:20:33;;;;;;;17.9;13.25;;;;;;;3.15;81.91504;95900.9;;;;
2020/03/19 04:21:34;;;;;;;17.9;13.25;;;;;;;3.15;81.91504;95900.9;;;;
2020/03/19 04:22:34;;;;;;;17.9;13.25;;;;;;;3.15;81.91504;95900.9;;;;
2020/03/19 04:23:35;;;;;;;17.9;13.25;;;;;;;3.15;81.91504;95900.9;;;;
2020/03/19 04:24:35;;;;;;;17.9;13.25;;;;;;;3.15;81.91504;95900.9;;;;
2020/03/19 04:25:36;;;;;;;17.9;13.25;;;;;;;3.15;81.91504;95900.9;;;;
2020/03/19 04:26:36;;;;;;;17.9;13.25;;;;;;;3.15;81.91504;95900.9;;;;
2020/03/19 04:27:37;;;;;;;17.9;13.25;;;;;;;3.15;81.91504;95900.9;;;;
2020/03/19 04:28:37;;;;;;;17.9;13.25;;;;;;;3.15;81.91504;95900.9;;;;
2020/03/19 04:29:38;;;;;;;18.85;13.55;;;;;;;3.06;81.89746;95896.2;;;;
2020/03/19 04:30:38;;;;;;;18.85;13.55;;;;;;;3.06;81.89746;95896.2;;;;
2020/03/19 04:31:38;;;;;;;18.85;13.55;;;;;;;3.06;81.89746;95896.2;;;;
2020/03/19 04:32:39;;;;;;;18.85;13.55;;;;;;;3.06;81.89746;95896.2;;;;
2020/03/19 04:33:40;;;;;;;18.85;13.55;;;;;;;3.06;81.89746;95896.2;;;;
2020/03/19 04:34:40;;;;;;;18.85;13.55;;;;;;;3.06;81.89746;95896.2;;;;
2020/03/19 04:35:41;;;;;;;18.85;13.55;;;;;;;3.06;81.89746;95896.2;;;;
2020/03/19 04:36:41;;;;;;;18.85;13.55;;;;;;;3.06;81.89746;95896.2;;;;
2020/03/19 04:37:42;;;;;;;18.85;13.55;;;;;;;3.06;81.89746;95896.2;;;;
2020/03/19 04:38:43;;;;;;;18.85;13.55;;;;;;;3.06;81.89746;95896.2;;;;
2020/03/19 04:39:43;;;;;;;18.85;13.55;;;;;;;3.06;81.89746;95896.2;;;;
2020/03/19 04:40:43;;;;;;;18.15;13.45;;;;;;;3;81.92676;95910.64;;;;
2020/03/19 04:41:44;;;;;;;18.15;13.45;;;;;;;3;81.92676;95910.64;;;;
2020/03/19 04:42:46;;;;;;;18.15;13.45;;;;;;;3;81.92676;95910.64;;;;
2020/03/19 04:43:47;;;;;;;18.15;13.45;;;;;;;3;81.92676;95910.64;;;;
2020/03/19 04:44:48;;;;;;;18.15;13.45;;;;;;;3;81.92676;95910.64;;;;
2020/03/19 04:45:49;;;;;;;18.15;13.45;;;;;;;3;81.92676;95910.64;;;;
2020/03/19 04:46:55;;;;;;;18.15;13.45;;;;;;;3;81.92676;95910.64;;;;
2020/03/19 04:47:59;;;;;;;18.15;13.45;;;;;;;3;81.92676;95910.64;;;;
2020/03/19 04:48:59;;;;;;;18.15;13.45;;;;;;;3;81.92676;95910.64;;;;
2020/03/19 04:50:01;;;;;;;18.15;13.45;;;;;;;3;81.92676;95910.64;;;;
2020/03/19 04:51:04;;;;;;;18.55;14.55;;;;;;;2.88;81.91406;95913.48;;;;
2020/03/19 04:52:04;;;;;;;18.55;14.55;;;;;;;2.88;81.91406;95913.48;;;;
2020/03/19 04:53:05;;;;;;;18.55;14.55;;;;;;;2.88;81.91406;95913.48;;;;
2020/03/19 04:54:06;;;;;;;18.55;14.55;;;;;;;2.88;81.91406;95913.48;;;;
2020/03/19 04:55:08;;;;;;;18.55;14.55;;;;;;;2.88;81.91406;95913.48;;;;
2020/03/19 04:56:09;;;;;;;18.55;14.55;;;;;;;2.88;81.91406;95913.48;;;;
2020/03/19 04:57:10;;;;;;;18.55;14.55;;;;;;;2.88;81.91406;95913.48;;;;
2020/03/19 04:58:11;;;;;;;18.55;14.55;;;;;;;2.88;81.91406;95913.48;;;;
2020/03/19 04:59:13;;;;;;;18.55;14.55;;;;;;;2.88;81.91406;95913.48;;;;
2020/03/19 05:00:13;;;;;;;18.55;14.55;;;;;;;2.88;81.91406;95913.48;;;;
2020/03/19 05:01:19;;;;;;;20.05;14.95;;;;;;;2.85;81.9502;95917.31;;;;
2020/03/19 05:02:21;;;;;;;20.05;14.95;;;;;;;2.85;81.9502;95917.31;;;;
2020/03/19 05:03:22;;;;;;;20.05;14.95;;;;;;;2.85;81.9502;95917.31;;;;
2020/03/19 05:04:26;;;;;;;20.05;14.95;;;;;;;2.85;81.9502;95917.31;;;;
2020/03/19 05:05:26;;;;;;;20.05;14.95;;;;;;;2.85;81.9502;95917.31;;;;
2020/03/19 05:06:27;;;;;;;20.05;14.95;;;;;;;2.85;81.9502;95917.31;;;;
2020/03/19 05:07:28;;;;;;;20.05;14.95;;;;;;;2.85;81.9502;95917.31;;;;
2020/03/19 05:08:28;;;;;;;20.05;14.95;;;;;;;2.85;81.9502;95917.31;;;;
2020/03/19 05:09:29;;;;;;;20.05;14.95;;;;;;;2.85;81.9502;95917.31;;;;
2020/03/19 05:10:29;;;;;;;20.05;14.95;;;;;;;2.85;81.9502;95917.31;;;;
2020/03/19 05:11:30;;;;;;;20.05;14.95;;;;;;;2.85;81.9502;95917.31;;;;
2020/03/19 05:12:30;;;;;;;19.6;14.7;;;;;;;2.79;82.13672;95917.19;;;;
2020/03/19 05:13:30;;;;;;;19.6;14.7;;;;;;;2.79;82.13672;95917.19;;;;
2020/03/19 05:14:31;;;;;;;19.6;14.7;;;;;;;2.79;82.13672;95917.19;;;;
2020/03/19 05:15:31;;;;;;;19.6;14.7;;;;;;;2.79;82.13672;95917.19;;;;
2020/03/19 05:16:32;;;;;;;19.6;14.7;;;;;;;2.79;82.13672;95917.19;;;;
2020/03/19 05:17:33;;;;;;;19.6;14.7;;;;;;;2.79;82.13672;95917.19;;;;
2020/03/19 05:18:34;;;;;;;19.6;14.7;;;;;;;2.79;82.13672;95917.19;;;;
2020/03/19 05:19:35;;;;;;;19.6;14.7;;;;;;;2.79;82.13672;95917.19;;;;
2020/03/19 05:20:35;;;;;;;19.6;14.7;;;;;;;2.79;82.13672;95917.19;;;;
2020/03/19 05:21:36;;;;;;;19.6;14.7;;;;;;;2.79;82.13672;95917.19;;;;
2020/03/19 05:22:36;;;;;;;17.95;13.3;;;;;;;2.82;82.1543;95915.42;;;;
2020/03/19 05:23:37;;;;;;;17.95;13.3;;;;;;;2.82;82.1543;95915.42;;;;
2020/03/19 05:24:37;;;;;;;17.95;13.3;;;;;;;2.82;82.1543;95915.42;;;;
2020/03/19 05:25:38;;;;;;;17.95;13.3;;;;;;;2.82;82.1543;95915.42;;;;
2020/03/19 05:26:38;;;;;;;17.95;13.3;;;;;;;2.82;82.1543;95915.42;;;;
2020/03/19 05:27:39;;;;;;;17.95;13.3;;;;;;;2.82;82.1543;95915.42;;;;
2020/03/19 05:28:40;;;;;;;17.95;13.3;;;;;;;2.82;82.1543;95915.42;;;;
2020/03/19 05:29:40;;;;;;;17.95;13.3;;;;;;;2.82;82.1543;95915.42;;;;
2020/03/19 05:30:41;;;;;;;17.95;13.3;;;;;;;2.82;82.1543;95915.42;;;;
2020/03/19 05:31:41;;;;;;;17.95;13.3;;;;;;;2.82;82.1543;95915.42;;;;
2020/03/19 05:32:42;;;;;;;17.95;13.3;;;;;;;2.82;82.1543;95915.42;;;;
2020/03/19 05:33:42;;;;;;;15;12.3;;;;;;;2.81;82.08984;95914.23;;;;
2020/03/19 05:34:44;;;;;;;15;12.3;;;;;;;2.81;82.08984;95914.23;;;;
2020/03/19 05:35:44;;;;;;;15;12.3;;;;;;;2.81;82.08984;95914.23;;;;
2020/03/19 05:36:45;;;;;;;15;12.3;;;;;;;2.81;82.08984;95914.23;;;;
2020/03/19 05:37:46;;;;;;;15;12.3;;;;;;;2.81;82.08984;95914.23;;;;
2020/03/19 05:38:47;;;;;;;15;12.3;;;;;;;2.81;82.08984;95914.23;;;;
2020/03/19 05:39:49;;;;;;;15;12.3;;;;;;;2.81;82.08984;95914.23;;;;
2020/03/19 05:40:52;;;;;;;15;12.3;;;;;;;2.81;82.08984;95914.23;;;;
2020/03/19 05:41:55;;;;;;;15;12.3;;;;;;;2.81;82.08984;95914.23;;;;
2020/03/19 05:43:02;;;;;;;15;12.3;;;;;;;2.81;82.08984;95914.23;;;;
2020/03/19 05:44:03;;;;;;;16.75;11.9;;;;;;;2.9;81.94922;95922.11;;;;
2020/03/19 05:45:05;;;;;;;16.75;11.9;;;;;;;2.9;81.94922;95922.11;;;;
2020/03/19 05:46:06;;;;;;;16.75;11.9;;;;;;;2.9;81.94922;95922.11;;;;
2020/03/19 05:47:14;;;;;;;16.75;11.9;;;;;;;2.9;81.94922;95922.11;;;;
2020/03/19 05:48:20;;;;;;;16.75;11.9;;;;;;;2.9;81.94922;95922.11;;;;
2020/03/19 05:49:38;;;;;;;16.75;11.9;;;;;;;2.9;81.94922;95922.11;;;;
2020/03/19 05:50:40;;;;;;;16.75;11.9;;;;;;;2.9;81.94922;95922.11;;;;
2020/03/19 05:51:50;;;;;;;16.75;11.9;;;;;;;2.9;81.94922;95922.11;;;;
2020/03/19 05:52:52;;;;;;;16.75;11.9;;;;;;;2.9;81.94922;95922.11;;;;
2020/03/19 05:53:52;;;;;;;16.75;11.9;;;;;;;2.9;81.94922;95922.11;;;;
2020/03/19 05:55:04;;;;;;;15.65;12.25;;;;;;;2.98;81.81836;95920.68;;;;
2020/03/19 05:56:05;;;;;;;15.65;12.25;;;;;;;2.98;81.81836;95920.68;;;;
2020/03/19 05:57:11;;;;;;;15.65;12.25;;;;;;;2.98;81.81836;95920.68;;;;
2020/03/19 05:58:16;;;;;;;15.65;12.25;;;;;;;2.98;81.81836;95920.68;;;;
2020/03/19 05:59:17;;;;;;;15.65;12.25;;;;;;;2.98;81.81836;95920.68;;;;